Time;durP1;ratioP1;P1;durP2;ratioP2;P2;SDS_P1;SDS_P2;PMS_P1;PMS_P2;Temp;Humidity;BMP_temperature;BMP_pressure;BME280_temperature;BME280_humidity;BME280_pressure;Samples;Min_cycle;Max_cycle;Signal;HPM_P1;HPM_P2
2023/08/18 00:00:11;;;;;;;8.15;5.78;;;;;;;25.93;57.20;99790.97;5138589;27;20333;-68
2023/08/18 00:02:38;;;;;;;9.05;5.40;;;;;;;25.88;57.05;99782.00;5138315;27;20325;-68
2023/08/18 00:05:03;;;;;;;8.35;5.90;;;;;;;25.85;56.99;99791.47;5138966;27;20054;-68
2023/08/18 00:07:29;;;;;;;6.78;6.10;;;;;;;25.85;57.31;99793.38;5138781;27;20035;-67
2023/08/18 00:09:54;;;;;;;7.45;6.18;;;;;;;25.83;57.57;99790.09;5138413;27;20035;-68
2023/08/18 00:12:19;;;;;;;8.52;6.57;;;;;;;25.83;58.01;99781.94;5138096;27;20039;-67
2023/08/18 00:14:45;;;;;;;6.18;5.57;;;;;;;25.85;57.68;99780.63;5138055;27;20232;-67
2023/08/18 00:17:10;;;;;;;7.75;6.55;;;;;;;25.86;57.59;99776.81;5138250;27;20135;-67
2023/08/18 00:19:36;;;;;;;7.20;6.28;;;;;;;25.85;57.55;99785.22;5137425;27;20226;-67
2023/08/18 00:22:01;;;;;;;6.95;5.90;;;;;;;25.83;57.77;99779.25;5137876;27;20039;-68
2023/08/18 00:24:26;;;;;;;7.47;6.45;;;;;;;25.82;58.44;99783.84;5137795;27;20039;-68
2023/08/18 00:26:52;;;;;;;7.95;5.65;;;;;;;25.75;58.19;99783.25;5137813;27;20031;-67
2023/08/18 00:29:17;;;;;;;7.70;6.90;;;;;;;25.78;58.24;99775.41;5138582;27;20061;-68
2023/08/18 00:31:43;;;;;;;8.75;6.10;;;;;;;25.86;57.74;99776.81;5139269;27;20037;-69
2023/08/18 00:34:09;;;;;;;8.52;6.22;;;;;;;25.88;58.18;99780.09;5138169;27;20114;-69
2023/08/18 00:36:34;;;;;;;7.30;6.60;;;;;;;25.87;57.59;99769.50;5137865;27;20124;-68
2023/08/18 00:39:01;;;;;;;9.30;6.40;;;;;;;25.85;57.69;99780.63;5137615;27;20080;-69
2023/08/18 00:41:27;;;;;;;12.95;7.05;;;;;;;25.77;57.94;99778.38;5139641;27;20062;-68
2023/08/18 00:43:52;;;;;;;9.20;7.07;;;;;;;25.70;58.61;99775.91;5142521;27;20331;-69
2023/08/18 00:46:19;;;;;;;8.73;6.22;;;;;;;25.57;58.51;99779.03;5142413;27;20045;-69
2023/08/18 00:48:44;;;;;;;8.20;6.80;;;;;;;25.49;59.04;99779.50;5141712;27;20035;-69
2023/08/18 00:51:11;;;;;;;7.75;6.68;;;;;;;25.36;59.36;99782.66;5141208;27;20182;-69
2023/08/18 00:53:37;;;;;;;7.72;6.80;;;;;;;25.33;59.62;99783.97;5140954;27;20049;-69
2023/08/18 00:56:03;;;;;;;7.57;6.22;;;;;;;25.21;59.65;99793.34;5141381;27;20050;-68
2023/08/18 00:58:29;;;;;;;9.45;7.22;;;;;;;25.07;60.00;99790.25;5141824;27;20035;-69
2023/08/18 01:00:55;;;;;;;7.72;6.63;;;;;;;25.05;59.65;99789.69;5142453;27;20085;-69
2023/08/18 01:03:21;;;;;;;9.88;7.40;;;;;;;25.09;59.41;99796.22;5141289;27;20243;-69
2023/08/18 01:05:46;;;;;;;7.68;6.85;;;;;;;25.03;59.91;99794.53;5141700;27;20039;-69
2023/08/18 01:08:12;;;;;;;10.20;7.05;;;;;;;25.01;59.94;99788.56;5142327;27;20030;-69
2023/08/18 01:10:48;;;;;;;8.35;7.47;;;;;;;24.71;62.52;99797.91;5142121;27;20039;-68
2023/08/18 01:13:41;;;;;;;8.02;7.00;;;;;;;24.72;62.95;99796.03;5142737;27;20251;-70
2023/08/18 01:16:14;;;;;;;8.57;7.70;;;;;;;24.62;63.48;99799.44;5134182;27;20348;-68
2023/08/18 01:18:41;;;;;;;9.40;7.47;;;;;;;24.59;64.26;99801.84;5142223;27;20256;-69
2023/08/18 01:21:10;;;;;;;10.05;7.13;;;;;;;24.68;63.78;99805.72;5141125;27;20046;-69
2023/08/18 01:23:40;;;;;;;11.50;7.72;;;;;;;24.71;63.99;99806.03;5141250;27;20126;-69
2023/08/18 01:26:05;;;;;;;10.68;8.25;;;;;;;24.68;64.17;99801.13;5140509;27;20034;-69
2023/08/18 01:28:32;;;;;;;9.45;7.47;;;;;;;24.66;64.46;99792.44;5140628;27;20049;-69
2023/08/18 01:30:59;;;;;;;8.40;7.70;;;;;;;24.75;64.21;99796.34;5140821;27;20094;-68
2023/08/18 01:33:38;;;;;;;11.18;7.95;;;;;;;24.81;64.38;99795.31;5140662;27;20043;-69
2023/08/18 01:36:08;;;;;;;11.27;7.63;;;;;;;24.84;64.26;99794.00;5141419;27;20030;-69
2023/08/18 01:38:35;;;;;;;8.38;7.15;;;;;;;24.88;64.17;99791.59;5141755;27;20039;-69
2023/08/18 01:41:05;;;;;;;12.52;8.05;;;;;;;24.90;63.80;99787.56;5141454;27;20067;-68
2023/08/18 01:43:32;;;;;;;8.85;7.63;;;;;;;24.91;63.52;99785.69;5141186;27;20066;-69
2023/08/18 01:45:59;;;;;;;12.05;7.75;;;;;;;24.96;63.77;99788.44;5141463;27;20266;-68
2023/08/18 01:48:25;;;;;;;9.30;7.53;;;;;;;24.91;62.99;99782.97;5141319;27;20043;-69
2023/08/18 01:50:50;;;;;;;8.48;7.60;;;;;;;24.91;62.74;99793.81;5141326;27;20035;-69
2023/08/18 01:53:15;;;;;;;11.10;8.38;;;;;;;24.75;63.46;99790.94;5141044;27;20325;-69
2023/08/18 01:55:43;;;;;;;11.82;9.18;;;;;;;24.71;63.63;99784.38;5139599;27;20313;-69
2023/08/18 01:58:08;;;;;;;11.30;7.85;;;;;;;24.68;63.72;99782.19;5139917;27;20046;-68
2023/08/18 02:00:34;;;;;;;10.13;7.82;;;;;;;24.56;63.62;99788.78;5139946;27;20047;-68
2023/08/18 02:02:59;;;;;;;9.20;7.82;;;;;;;24.59;64.17;99781.00;5139969;27;20027;-68
2023/08/18 02:05:25;;;;;;;8.80;7.78;;;;;;;24.48;64.16;99787.34;5140076;27;20038;-69
2023/08/18 02:07:50;;;;;;;9.70;8.20;;;;;;;24.47;64.85;99777.59;5140575;27;20038;-69
2023/08/18 02:10:16;;;;;;;10.43;8.07;;;;;;;24.50;65.11;99779.81;5140287;27;20042;-68
2023/08/18 02:12:41;;;;;;;9.75;7.93;;;;;;;24.48;65.00;99773.81;5139633;27;20035;-68
2023/08/18 02:15:07;;;;;;;8.88;7.57;;;;;;;24.54;63.79;99774.69;5139836;27;20073;-69
2023/08/18 02:17:33;;;;;;;10.32;6.80;;;;;;;24.52;63.34;99775.78;5139761;27;20039;-68
2023/08/18 02:19:58;;;;;;;10.88;8.30;;;;;;;24.52;64.20;99775.78;5140264;27;20390;-68
2023/08/18 02:22:25;;;;;;;13.95;8.25;;;;;;;24.49;65.38;99773.56;5140328;27;20045;-68
2023/08/18 02:24:51;;;;;;;12.40;7.10;;;;;;;24.44;64.83;99772.69;5140381;27;20054;-68
2023/08/18 02:27:17;;;;;;;9.52;7.45;;;;;;;24.45;63.57;99775.16;5140629;27;20213;-68
2023/08/18 02:29:42;;;;;;;10.75;7.65;;;;;;;24.38;64.28;99776.41;5140244;27;20042;-68
2023/08/18 02:32:07;;;;;;;8.77;7.88;;;;;;;24.27;65.17;99780.88;5139688;27;20046;-67
2023/08/18 02:34:33;;;;;;;11.15;7.70;;;;;;;24.31;64.41;99771.19;5139293;27;20058;-69
2023/08/18 02:36:58;;;;;;;11.77;8.63;;;;;;;24.16;65.18;99774.47;5139955;27;20042;-68
2023/08/18 02:39:24;;;;;;;9.80;8.77;;;;;;;24.22;67.33;99778.06;5139804;27;20043;-67
2023/08/18 02:41:51;;;;;;;9.30;7.78;;;;;;;24.15;66.14;99777.44;5140029;27;20061;-69
2023/08/18 02:44:17;;;;;;;9.57;8.02;;;;;;;24.12;66.19;99772.50;5139934;27;20118;-69
2023/08/18 02:46:43;;;;;;;9.52;8.52;;;;;;;24.13;67.86;99780.38;5140477;27;20062;-67
2023/08/18 02:49:08;;;;;;;10.55;9.38;;;;;;;24.10;68.59;99783.59;5139907;27;20328;-69
2023/08/18 02:51:34;;;;;;;11.35;8.60;;;;;;;23.97;69.36;99783.13;5139397;27;20035;-68
2023/08/18 02:53:59;;;;;;;11.38;8.60;;;;;;;23.86;70.01;99780.22;5139081;27;20054;-67
2023/08/18 02:56:26;;;;;;;11.48;8.60;;;;;;;23.84;70.52;99786.97;5139103;27;20510;-68
2023/08/18 02:58:51;;;;;;;12.32;8.63;;;;;;;23.88;70.33;99797.03;5139295;27;20088;-68
2023/08/18 03:01:17;;;;;;;11.85;8.30;;;;;;;24.03;69.56;99787.53;5139571;27;20043;-68
2023/08/18 03:03:42;;;;;;;10.82;8.20;;;;;;;24.14;69.08;99787.44;5138585;27;20058;-68
2023/08/18 03:06:08;;;;;;;10.02;8.18;;;;;;;24.12;68.78;99786.03;5139861;27;20025;-68
2023/08/18 03:08:36;;;;;;;10.18;8.48;;;;;;;23.99;69.34;99784.50;5139690;27;20035;-68
2023/08/18 03:11:02;;;;;;;10.95;8.13;;;;;;;23.77;70.13;99783.59;5140302;27;20072;-68
2023/08/18 03:13:28;;;;;;;12.77;8.85;;;;;;;23.86;69.79;99790.22;5139605;27;20039;-69
2023/08/18 03:15:53;;;;;;;9.88;8.77;;;;;;;23.99;69.38;99786.41;5139309;27;20043;-68
2023/08/18 03:18:19;;;;;;;15.65;8.25;;;;;;;24.04;68.98;99789.16;5139553;27;20091;-69
2023/08/18 03:20:47;;;;;;;11.95;8.50;;;;;;;24.07;68.48;99789.50;5139405;27;20061;-68
2023/08/18 03:23:19;;;;;;;9.68;7.90;;;;;;;24.06;68.07;99779.75;5138992;27;20031;-67
2023/08/18 03:25:44;;;;;;;11.30;8.93;;;;;;;24.10;68.22;99789.00;5139071;27;20058;-69
2023/08/18 03:28:13;;;;;;;9.00;7.75;;;;;;;23.89;69.70;99784.34;5139955;27;20037;-68
2023/08/18 03:30:39;;;;;;;14.18;8.65;;;;;;;23.99;69.77;99787.22;5138826;27;20031;-68
2023/08/18 03:33:05;;;;;;;10.15;8.27;;;;;;;24.00;69.39;99788.03;5138373;27;20325;-69
2023/08/18 03:35:32;;;;;;;11.02;8.15;;;;;;;23.98;68.77;99791.00;5138298;27;20042;-68
2023/08/18 03:38:00;;;;;;;12.52;8.43;;;;;;;24.06;69.42;99792.44;5138617;27;20110;-69
2023/08/18 03:40:26;;;;;;;11.77;8.98;;;;;;;24.09;68.87;99792.75;5139160;27;20102;-69
2023/08/18 03:42:52;;;;;;;10.88;8.50;;;;;;;24.07;68.79;99794.09;5139614;27;20046;-69
2023/08/18 03:45:17;;;;;;;15.93;9.10;;;;;;;24.10;69.08;99797.13;5138386;27;20066;-68
2023/08/18 03:47:43;;;;;;;15.57;8.98;;;;;;;23.98;69.27;99798.28;5139585;27;21124;-69
2023/08/18 03:50:08;;;;;;;20.25;8.88;;;;;;;23.95;69.47;99796.06;5138805;27;20042;-69
2023/08/18 03:52:34;;;;;;;12.07;7.60;;;;;;;23.90;69.64;99796.78;5139331;27;20049;-68
2023/08/18 03:55:00;;;;;;;17.40;9.50;;;;;;;23.95;69.93;99804.19;5139050;27;20039;-69
2023/08/18 03:57:25;;;;;;;15.07;8.70;;;;;;;23.95;69.53;99799.59;5139209;27;20385;-68
2023/08/18 03:59:53;;;;;;;12.32;8.25;;;;;;;23.88;69.93;99798.91;5139577;27;20079;-69
2023/08/18 04:02:18;;;;;;;10.85;7.85;;;;;;;23.88;70.34;99801.63;5139284;27;20221;-68
2023/08/18 04:04:44;;;;;;;11.70;7.85;;;;;;;23.94;70.43;99806.06;5138491;27;20059;-69
2023/08/18 04:07:09;;;;;;;10.82;7.68;;;;;;;24.03;70.13;99801.06;5139033;27;20031;-68
2023/08/18 04:09:34;;;;;;;10.20;8.15;;;;;;;24.12;69.82;99808.50;5139336;27;20054;-68
2023/08/18 04:12:00;;;;;;;14.45;8.10;;;;;;;24.13;69.83;99803.91;5138912;27;20338;-69
2023/08/18 04:14:25;;;;;;;12.20;8.50;;;;;;;24.16;69.52;99798.81;5138016;27;20057;-68
2023/08/18 04:16:51;;;;;;;10.63;9.20;;;;;;;24.24;69.16;99804.88;5139931;27;20043;-69
2023/08/18 04:19:16;;;;;;;13.10;8.63;;;;;;;24.30;69.11;99801.19;5142105;27;20083;-69
2023/08/18 04:21:42;;;;;;;10.23;9.13;;;;;;;24.33;68.68;99804.22;5142275;27;20042;-69
2023/08/18 04:24:07;;;;;;;12.23;8.27;;;;;;;24.33;68.54;99806.91;5142431;27;20045;-68
2023/08/18 04:26:35;;;;;;;13.20;8.13;;;;;;;24.31;68.89;99802.81;5142554;27;20336;-68
2023/08/18 04:29:02;;;;;;;17.75;8.63;;;;;;;24.31;69.01;99800.94;5142720;27;20066;-69
2023/08/18 04:31:27;;;;;;;15.90;8.30;;;;;;;24.42;68.97;99810.84;5142801;27;20031;-69
2023/08/18 04:33:53;;;;;;;13.95;8.30;;;;;;;24.32;69.19;99804.47;5141870;27;20208;-69
2023/08/18 04:36:18;;;;;;;12.70;8.35;;;;;;;24.41;68.73;99813.78;5142132;27;20066;-68
2023/08/18 04:38:44;;;;;;;13.15;9.18;;;;;;;24.15;69.85;99809.88;5141508;27;20038;-68
2023/08/18 04:41:09;;;;;;;12.10;9.48;;;;;;;23.96;70.57;99809.34;5141850;27;20031;-68
2023/08/18 04:43:35;;;;;;;10.77;9.15;;;;;;;24.13;69.77;99812.84;5142097;27;20043;-68
2023/08/18 04:46:00;;;;;;;11.07;9.93;;;;;;;24.27;69.20;99817.94;5142091;27;20045;-69
2023/08/18 04:48:26;;;;;;;8.85;7.25;;;;;;;24.31;68.89;99814.47;5142177;27;20083;-68
2023/08/18 04:50:51;;;;;;;11.60;8.80;;;;;;;24.41;68.98;99821.91;5141384;27;20031;-68
2023/08/18 04:53:17;;;;;;;14.50;10.57;;;;;;;23.96;70.71;99819.34;5141635;27;20039;-68
2023/08/18 04:55:42;;;;;;;15.35;11.40;;;;;;;24.17;70.26;99827.50;5142379;27;20053;-68
2023/08/18 04:58:12;;;;;;;10.98;8.85;;;;;;;24.32;70.00;99824.22;5142205;27;20110;-68
2023/08/18 05:00:41;;;;;;;12.02;8.18;;;;;;;24.57;69.32;99826.44;5141182;27;20031;-68
2023/08/18 05:03:07;;;;;;;13.43;8.48;;;;;;;24.71;68.54;99829.59;5141816;27;20031;-69
2023/08/18 05:05:39;;;;;;;12.00;7.53;;;;;;;24.98;67.81;99825.09;5141538;27;20050;-68
2023/08/18 05:08:05;;;;;;;16.75;9.75;;;;;;;25.04;67.47;99823.25;5141579;27;20038;-68
2023/08/18 05:10:30;;;;;;;13.57;9.05;;;;;;;25.23;66.92;99824.53;5141698;27;20023;-68
2023/08/18 05:12:56;;;;;;;9.38;8.10;;;;;;;25.34;66.34;99826.28;5142327;27;20030;-69
2023/08/18 05:15:22;;;;;;;12.25;8.07;;;;;;;25.59;65.85;99830.28;5141904;27;20039;-68
2023/08/18 05:17:48;;;;;;;7.82;7.03;;;;;;;25.84;65.05;99822.38;5141070;27;20247;-68
2023/08/18 05:20:14;;;;;;;10.15;7.55;;;;;;;25.96;64.09;99823.00;5141435;27;20084;-69
2023/08/18 05:22:40;;;;;;;12.35;7.40;;;;;;;26.13;63.76;99824.78;5141837;27;20035;-68
2023/08/18 05:25:07;;;;;;;10.70;8.23;;;;;;;26.20;63.11;99826.19;5141969;27;20117;-68
2023/08/18 05:27:33;;;;;;;9.57;7.80;;;;;;;26.17;63.07;99828.59;5141183;27;20035;-68
2023/08/18 05:29:59;;;;;;;9.60;7.70;;;;;;;26.16;62.54;99821.53;5141640;27;20043;-68
2023/08/18 05:32:25;;;;;;;13.55;7.97;;;;;;;26.23;63.05;99824.84;5141106;27;20041;-69
2023/08/18 05:34:54;;;;;;;9.63;7.90;;;;;;;26.59;62.33;99823.16;5140760;27;20236;-68
2023/08/18 05:37:20;;;;;;;10.30;9.10;;;;;;;26.72;61.89;99828.09;5141530;27;20042;-68
2023/08/18 05:39:46;;;;;;;9.43;8.63;;;;;;;26.82;60.13;99827.31;5141258;27;20035;-69
2023/08/18 05:42:29;;;;;;;10.07;8.52;;;;;;;26.88;59.50;99827.06;5120505;27;20051;-69
2023/08/18 05:44:55;;;;;;;;;;;;;;;26.92;59.70;99822.72;5121155;28;20063;-68
2023/08/18 05:47:20;;;;;;;16.48;7.32;;;;;;;27.13;59.60;99823.66;5120547;28;19916;-69
2023/08/18 05:49:45;;;;;;;11.95;6.78;;;;;;;27.28;59.11;99829.09;5120637;28;20042;-69
2023/08/18 05:52:11;;;;;;;7.28;6.50;;;;;;;27.46;59.64;99827.75;5120606;28;20039;-68
2023/08/18 05:54:36;;;;;;;8.35;7.15;;;;;;;27.65;57.98;99823.44;5121019;28;20329;-68
2023/08/18 05:57:02;;;;;;;6.97;6.35;;;;;;;27.86;56.91;99826.16;5101848;28;20052;-69
2023/08/18 05:59:31;;;;;;;10.57;7.53;;;;;;;27.99;56.18;99823.69;5120214;28;20035;-69
2023/08/18 06:01:56;;;;;;;9.63;7.63;;;;;;;28.02;56.41;99822.31;5120425;28;20038;-68
2023/08/18 06:04:22;;;;;;;8.07;6.43;;;;;;;28.18;55.98;99829.41;5120072;28;20321;-67
2023/08/18 06:06:47;;;;;;;8.02;7.00;;;;;;;28.24;55.13;99832.97;5120147;28;20217;-69
2023/08/18 06:09:12;;;;;;;7.22;6.20;;;;;;;28.29;53.42;99831.03;5120121;28;20043;-68
2023/08/18 06:11:38;;;;;;;8.55;6.47;;;;;;;28.35;53.29;99831.03;5119642;28;20084;-69
2023/08/18 06:14:03;;;;;;;11.00;7.18;;;;;;;28.47;53.47;99824.16;5102023;28;20040;-69
2023/08/18 06:16:29;;;;;;;11.15;7.10;;;;;;;28.56;52.29;99827.13;5120050;28;20046;-68
2023/08/18 06:18:54;;;;;;;8.38;7.10;;;;;;;28.61;52.81;99825.22;5120316;28;20044;-69
2023/08/18 06:21:19;;;;;;;14.10;7.07;;;;;;;28.79;52.85;99822.94;5119809;28;20321;-69
2023/08/18 06:23:45;;;;;;;13.75;6.90;;;;;;;28.84;51.17;99818.31;5119759;28;20044;-68
2023/08/18 06:26:12;;;;;;;7.65;6.70;;;;;;;28.86;51.43;99821.56;5120010;28;20031;-68
2023/08/18 06:28:37;;;;;;;10.18;6.90;;;;;;;28.92;51.59;99823.19;5120028;28;20214;-69
2023/08/18 06:31:06;;;;;;;7.38;6.68;;;;;;;28.99;51.44;99820.16;5119950;28;20036;-68
2023/08/18 06:33:35;;;;;;;7.90;6.85;;;;;;;28.97;50.74;99825.06;5119799;28;20039;-69
2023/08/18 06:36:04;;;;;;;8.25;7.38;;;;;;;29.08;51.38;99823.09;5119313;28;20066;-68
2023/08/18 06:38:29;;;;;;;7.53;6.78;;;;;;;28.96;50.99;99831.63;5119531;28;20082;-69
2023/08/18 06:40:56;;;;;;;7.85;7.05;;;;;;;28.93;51.18;99824.81;5118893;28;20027;-69
2023/08/18 06:43:21;;;;;;;8.32;7.47;;;;;;;28.96;51.04;99819.91;5119642;28;20047;-69
2023/08/18 06:45:46;;;;;;;9.68;6.85;;;;;;;29.19;50.08;99825.50;5119301;28;20363;-68
2023/08/18 06:48:12;;;;;;;9.75;7.00;;;;;;;29.24;49.97;99824.66;5119717;28;20081;-69
2023/08/18 06:50:37;;;;;;;7.63;6.53;;;;;;;29.21;48.70;99826.03;5119090;28;20027;-69
2023/08/18 06:53:03;;;;;;;7.70;6.90;;;;;;;29.47;48.44;99821.25;5119665;28;20055;-70
2023/08/18 06:55:29;;;;;;;11.05;6.32;;;;;;;29.66;47.77;99823.28;5119104;28;20360;-67
2023/08/18 06:57:54;;;;;;;8.57;6.72;;;;;;;29.77;47.70;99822.91;5119236;28;20031;-67
2023/08/18 07:00:20;;;;;;;7.50;6.78;;;;;;;29.79;48.34;99820.69;5119467;28;20084;-67
2023/08/18 07:02:46;;;;;;;7.50;6.72;;;;;;;29.94;46.90;99817.00;5119366;28;20038;-67
2023/08/18 07:05:12;;;;;;;10.95;6.80;;;;;;;29.98;47.34;99811.78;5119391;28;20039;-67
2023/08/18 07:07:38;;;;;;;8.82;6.60;;;;;;;30.33;46.47;99816.13;5118744;28;20028;-67
2023/08/18 07:10:04;;;;;;;8.63;6.50;;;;;;;30.46;46.14;99815.41;5119748;28;20376;-67
2023/08/18 07:12:29;;;;;;;8.82;7.32;;;;;;;30.52;45.11;99818.91;5118752;28;20069;-69
2023/08/18 07:14:54;;;;;;;7.32;6.43;;;;;;;30.59;45.11;99809.28;5119368;28;20218;-69
2023/08/18 07:17:20;;;;;;;8.00;6.78;;;;;;;30.85;44.15;99807.00;5118701;28;20095;-67
2023/08/18 07:19:45;;;;;;;7.07;6.20;;;;;;;30.94;44.13;99807.16;5118616;28;20292;-68
2023/08/18 07:22:11;;;;;;;6.45;5.68;;;;;;;30.97;42.63;99812.84;5119065;28;20267;-69
2023/08/18 07:24:36;;;;;;;7.22;5.97;;;;;;;31.00;43.13;99812.25;5118580;28;20069;-69
2023/08/18 07:27:03;;;;;;;5.70;5.20;;;;;;;31.04;42.95;99805.09;5119284;28;20039;-69
2023/08/18 07:29:28;;;;;;;6.03;5.53;;;;;;;31.10;42.94;99816.78;5119183;28;20294;-68
2023/08/18 07:31:55;;;;;;;5.95;5.40;;;;;;;31.33;41.43;99809.66;5118360;28;20035;-69
2023/08/18 07:34:20;;;;;;;7.53;6.72;;;;;;;31.44;42.30;99806.47;5119543;28;20050;-69
2023/08/18 07:36:46;;;;;;;6.25;5.63;;;;;;;31.61;42.00;99807.81;5119161;28;20202;-68
2023/08/18 07:39:11;;;;;;;7.97;7.30;;;;;;;31.69;40.92;99799.78;5118890;28;20070;-69
2023/08/18 07:41:43;;;;;;;7.65;5.85;;;;;;;31.64;41.70;99796.28;5118521;28;20211;-69
2023/08/18 07:44:08;;;;;;;6.75;6.05;;;;;;;31.86;40.68;99799.19;5118134;28;20329;-68
2023/08/18 07:46:34;;;;;;;6.53;4.70;;;;;;;31.84;41.00;99798.69;5118680;28;20061;-69
2023/08/18 07:49:00;;;;;;;5.07;4.65;;;;;;;31.98;38.99;99794.03;5118606;28;20040;-70
2023/08/18 07:51:25;;;;;;;6.88;4.95;;;;;;;32.12;39.23;99796.00;5121178;28;20092;-71
2023/08/18 07:53:51;;;;;;;6.70;5.47;;;;;;;32.22;39.55;99796.59;5122336;28;20333;-70
2023/08/18 07:56:16;;;;;;;5.97;4.65;;;;;;;32.33;37.67;99797.28;5122037;28;20027;-69
2023/08/18 07:58:42;;;;;;;6.63;4.28;;;;;;;32.43;36.83;99788.84;5122001;28;20046;-72
2023/08/18 08:01:08;;;;;;;6.93;4.70;;;;;;;32.59;37.76;99800.31;5122004;28;20027;-69
2023/08/18 08:03:35;;;;;;;4.78;4.38;;;;;;;32.62;37.38;99799.69;5121556;28;20053;-68
2023/08/18 08:06:01;;;;;;;5.75;4.72;;;;;;;32.69;37.02;99800.09;5122117;28;20043;-69
2023/08/18 08:08:26;;;;;;;5.88;4.22;;;;;;;32.78;36.86;99798.28;5122278;28;20345;-69
2023/08/18 08:10:52;;;;;;;6.82;5.05;;;;;;;32.96;36.32;99799.25;5121547;28;20105;-68
2023/08/18 08:13:17;;;;;;;7.93;5.32;;;;;;;33.07;35.20;99791.59;5122327;28;20305;-68
2023/08/18 08:15:45;;;;;;;5.10;4.38;;;;;;;33.19;36.41;99800.09;5121465;28;20241;-69
2023/08/18 08:18:15;;;;;;;7.40;5.30;;;;;;;33.12;35.99;99796.97;5122314;28;20241;-68
2023/08/18 08:20:42;;;;;;;5.95;5.05;;;;;;;33.16;35.29;99795.22;5122049;28;20032;-69
2023/08/18 08:23:07;;;;;;;5.68;5.05;;;;;;;33.23;35.20;99792.84;5122849;28;20287;-68
2023/08/18 08:25:34;;;;;;;6.70;5.25;;;;;;;33.29;34.57;99783.38;5121796;28;20044;-68
2023/08/18 08:27:59;;;;;;;5.60;4.90;;;;;;;32.98;34.13;99781.34;5121935;28;20617;-67
2023/08/18 08:30:25;;;;;;;6.80;5.40;;;;;;;32.94;34.86;99776.78;5121707;28;20334;-67
2023/08/18 08:32:51;;;;;;;5.55;4.97;;;;;;;32.77;35.82;99773.88;5121412;28;20267;-68
2023/08/18 08:35:16;;;;;;;5.63;5.10;;;;;;;32.92;36.61;99779.03;5121587;28;20035;-69
2023/08/18 08:37:42;;;;;;;6.60;5.10;;;;;;;33.12;35.74;99778.56;5122119;28;20043;-68
2023/08/18 08:40:16;;;;;;;7.63;4.95;;;;;;;33.26;35.67;99779.31;5122837;28;20344;-68
2023/08/18 08:42:42;;;;;;;5.47;4.97;;;;;;;33.37;35.05;99777.19;5121721;28;20038;-70
2023/08/18 08:45:08;;;;;;;5.95;5.00;;;;;;;33.35;34.60;99767.66;5121269;28;20048;-70
2023/08/18 08:47:33;;;;;;;6.05;4.68;;;;;;;32.98;35.35;99764.09;5121943;28;20028;-70
2023/08/18 08:50:03;;;;;;;7.30;4.97;;;;;;;32.83;34.37;99762.50;5122252;28;20325;-70
2023/08/18 08:52:35;;;;;;;5.93;5.43;;;;;;;32.95;35.29;99751.81;5121216;28;20140;-69
2023/08/18 08:55:02;;;;;;;8.70;5.30;;;;;;;32.83;34.94;99756.22;5121813;28;20047;-69
2023/08/18 08:57:28;;;;;;;6.10;4.68;;;;;;;33.00;35.22;99754.44;5121427;28;20027;-68
2023/08/18 08:59:54;;;;;;;5.90;4.72;;;;;;;33.25;36.33;99746.69;5122022;28;20039;-68
2023/08/18 09:02:20;;;;;;;6.07;4.85;;;;;;;33.44;34.70;99752.06;5120670;28;20069;-69
2023/08/18 09:04:46;;;;;;;6.10;5.10;;;;;;;32.83;34.60;99758.94;5120921;28;20057;-69
2023/08/18 09:07:14;;;;;;;4.75;4.35;;;;;;;32.62;35.13;99742.13;5120815;28;20027;-69
2023/08/18 09:09:41;;;;;;;7.07;4.80;;;;;;;32.51;35.42;99741.53;5121473;28;20035;-70
2023/08/18 09:12:08;;;;;;;5.15;4.65;;;;;;;32.63;35.03;99739.06;5120993;28;20063;-70
2023/08/18 09:14:35;;;;;;;6.00;4.53;;;;;;;32.57;36.24;99743.03;5121084;28;20043;-69
2023/08/18 09:17:04;;;;;;;5.30;4.80;;;;;;;32.37;35.70;99738.00;5121068;28;20037;-70
2023/08/18 09:19:30;;;;;;;5.07;4.38;;;;;;;32.07;36.29;99740.19;5121008;28;20257;-68
2023/08/18 09:21:59;;;;;;;5.78;4.85;;;;;;;32.06;37.05;99738.56;5120419;28;20031;-68
2023/08/18 09:24:26;;;;;;;5.18;4.70;;;;;;;32.02;36.73;99737.56;5120769;28;20070;-69
2023/08/18 09:26:52;;;;;;;5.70;4.88;;;;;;;31.72;37.32;99738.94;5120334;28;20320;-69
2023/08/18 09:29:18;;;;;;;5.25;4.80;;;;;;;31.85;37.57;99740.06;5121017;28;20081;-69
2023/08/18 09:31:45;;;;;;;6.43;5.07;;;;;;;31.98;37.21;99742.00;5121536;28;20321;-69
2023/08/18 09:34:18;;;;;;;5.68;4.90;;;;;;;32.07;37.41;99737.44;5120888;28;20047;-69
2023/08/18 09:36:53;;;;;;;4.88;4.47;;;;;;;32.26;37.24;99728.38;5120866;28;20072;-68
2023/08/18 09:39:20;;;;;;;5.97;4.78;;;;;;;32.22;36.84;99733.59;5120436;28;20051;-68
2023/08/18 09:41:50;;;;;;;6.85;5.03;;;;;;;31.91;36.90;99733.38;5120033;28;20039;-69
2023/08/18 09:44:17;;;;;;;5.75;4.78;;;;;;;31.98;37.48;99732.97;5120509;28;20261;-69
2023/08/18 09:46:47;;;;;;;6.00;5.20;;;;;;;31.84;37.29;99729.44;5120470;28;20036;-69
2023/08/18 09:49:16;;;;;;;4.95;4.55;;;;;;;31.93;38.60;99735.81;5120583;28;20068;-68
2023/08/18 09:51:43;;;;;;;7.68;4.63;;;;;;;31.98;38.18;99730.25;5120466;28;20039;-69
2023/08/18 09:54:12;;;;;;;5.80;4.40;;;;;;;31.97;37.55;99729.44;5120312;28;20046;-68
2023/08/18 09:56:39;;;;;;;6.10;5.15;;;;;;;31.94;37.25;99737.44;5120469;28;20101;-69
2023/08/18 09:59:09;;;;;;;5.68;4.85;;;;;;;32.00;37.31;99736.22;5120440;28;20202;-69
2023/08/18 10:01:36;;;;;;;5.55;4.82;;;;;;;31.89;37.96;99732.88;5119803;28;20347;-69
2023/08/18 10:04:02;;;;;;;6.22;5.25;;;;;;;31.81;38.08;99730.03;5120444;28;20039;-69
2023/08/18 10:06:28;;;;;;;6.38;5.07;;;;;;;31.87;38.72;99723.34;5119866;28;20333;-70
2023/08/18 10:08:55;;;;;;;6.45;4.78;;;;;;;31.79;38.22;99724.84;5120325;28;20047;-70
2023/08/18 10:11:20;;;;;;;5.13;4.63;;;;;;;31.63;37.80;99726.22;5119667;28;20039;-69
2023/08/18 10:13:47;;;;;;;5.28;4.78;;;;;;;31.81;38.09;99730.03;5118983;28;20345;-69
2023/08/18 10:16:14;;;;;;;6.00;5.10;;;;;;;31.79;37.69;99718.56;5119699;28;20235;-69
2023/08/18 10:18:39;;;;;;;8.98;4.97;;;;;;;31.88;37.55;99730.44;5120090;28;20051;-69
2023/08/18 10:21:05;;;;;;;4.70;4.30;;;;;;;31.97;36.72;99732.16;5120240;28;20316;-68
2023/08/18 10:23:31;;;;;;;6.13;4.57;;;;;;;32.15;37.40;99721.41;5120176;28;20089;-69
2023/08/18 10:25:57;;;;;;;4.78;4.25;;;;;;;32.10;35.17;99713.31;5120696;28;20070;-69
2023/08/18 10:28:28;;;;;;;4.80;4.38;;;;;;;32.05;35.11;99706.00;5119696;28;20114;-69
2023/08/18 10:31:08;;;;;;;5.03;4.57;;;;;;;32.16;36.09;99712.88;5119347;28;20035;-69
2023/08/18 10:33:52;;;;;;;4.47;4.07;;;;;;;32.23;35.35;99713.28;5119518;28;20313;-69
2023/08/18 10:36:29;;;;;;;9.75;4.10;;;;;;;32.16;35.48;99707.41;5119583;28;20071;-69
2023/08/18 10:38:54;;;;;;;5.78;4.53;;;;;;;32.10;35.22;99694.13;5119366;28;20103;-69
2023/08/18 10:41:28;;;;;;;3.60;3.20;;;;;;;32.29;31.57;99722.28;5118308;28;20059;-68
2023/08/18 10:43:58;;;;;;;5.75;3.70;;;;;;;32.34;31.62;99716.69;5118747;28;20092;-69
2023/08/18 10:46:34;;;;;;;3.63;3.30;;;;;;;32.27;29.75;99719.03;5119654;28;20023;-68
2023/08/18 10:49:00;;;;;;;5.38;3.58;;;;;;;32.18;31.20;99716.13;5120078;28;20035;-68
2023/08/18 10:51:25;;;;;;;4.80;3.70;;;;;;;32.27;31.32;99703.41;5119638;28;20031;-69
2023/08/18 10:53:51;;;;;;;4.43;3.45;;;;;;;32.26;30.62;99710.00;5119601;28;20050;-68
2023/08/18 10:56:17;;;;;;;3.95;3.63;;;;;;;32.13;31.43;99707.22;5119180;28;20222;-69
2023/08/18 10:58:42;;;;;;;5.07;3.50;;;;;;;32.18;30.67;99709.84;5119534;28;20066;-68
2023/08/18 11:01:09;;;;;;;4.18;3.63;;;;;;;32.36;31.09;99708.97;5119487;28;20229;-69
2023/08/18 11:03:35;;;;;;;4.45;3.83;;;;;;;32.48;32.90;99695.56;5119463;28;20039;-68
2023/08/18 11:06:02;;;;;;;5.45;3.60;;;;;;;32.58;32.73;99709.03;5119276;28;20321;-69
2023/08/18 11:08:29;;;;;;;4.82;3.50;;;;;;;32.58;30.77;99713.69;5119252;28;20271;-69
2023/08/18 11:10:54;;;;;;;4.28;3.65;;;;;;;32.68;31.25;99705.25;5118432;28;20109;-68
2023/08/18 11:13:27;;;;;;;5.07;3.65;;;;;;;32.73;31.26;99705.13;5119438;28;20048;-68
2023/08/18 11:15:54;;;;;;;5.28;3.40;;;;;;;32.69;31.43;99701.38;5118241;28;20038;-68
2023/08/18 11:18:21;;;;;;;4.15;3.35;;;;;;;32.73;30.98;99699.63;5118200;28;20024;-68
2023/08/18 11:20:48;;;;;;;5.75;3.70;;;;;;;32.77;30.78;99705.31;5117998;28;20035;-68
2023/08/18 11:23:13;;;;;;;4.95;3.97;;;;;;;32.81;30.70;99690.72;5118245;28;20032;-69
2023/08/18 11:25:39;;;;;;;5.07;4.13;;;;;;;32.66;32.25;99694.59;5117772;28;20048;-67
2023/08/18 11:28:05;;;;;;;4.93;4.20;;;;;;;32.75;31.70;99702.88;5118309;28;20030;-69